createdAt,value
2023-03-17T00:04:32.026Z,99867.81
2023-03-17T00:09:56.220Z,99876.40
2023-03-17T00:15:24.232Z,99863.10
2023-03-17T00:20:48.797Z,99856.06
2023-03-17T00:26:13.474Z,99852.70
2023-03-17T00:31:40.630Z,99835.55
2023-03-17T00:37:04.940Z,99826.77
2023-03-17T00:42:29.802Z,99822.61
2023-03-17T00:47:56.420Z,99818.80
2023-03-17T00:53:24.605Z,99806.34
2023-03-17T00:58:49.880Z,99797.66
2023-03-17T01:04:14.620Z,99794.45
2023-03-17T01:09:38.513Z,99788.70
2023-03-17T01:15:03.035Z,99787.61
2023-03-17T01:20:31.962Z,99777.22
2023-03-17T01:25:56.749Z,99757.15
2023-03-17T01:31:23.569Z,99759.86
2023-03-17T01:36:48.922Z,99759.68
2023-03-17T01:42:13.956Z,99762.30
2023-03-17T01:47:38.334Z,99765.67
2023-03-17T01:53:02.188Z,99755.79
2023-03-17T01:58:27.082Z,99751.40
2023-03-17T02:03:52.586Z,99743.66
2023-03-17T02:09:17.832Z,99734.73
2023-03-17T02:14:42.237Z,99738.77
2023-03-17T02:20:18.771Z,99735.70
2023-03-17T02:25:47.794Z,99719.25
2023-03-17T02:31:12.987Z,99707.64
2023-03-17T02:36:37.817Z,99708.28
2023-03-17T02:42:04.089Z,99715.17
2023-03-17T02:47:27.993Z,99710.84
2023-03-17T02:52:52.623Z,99711.97
2023-03-17T02:58:16.921Z,99711.83
2023-03-17T03:03:41.077Z,99716.36
2023-03-17T03:09:06.151Z,99709.67
2023-03-17T03:14:30.981Z,99714.16
2023-03-17T03:19:55.037Z,99710.60
2023-03-17T03:25:19.106Z,99707.10
2023-03-17T03:30:44.848Z,99706.02
2023-03-17T03:36:09.311Z,99699.16
2023-03-17T03:41:33.950Z,99693.71
2023-03-17T03:46:59.277Z,99692.66
2023-03-17T03:52:23.819Z,99687.65
2023-03-17T03:57:48.244Z,99670.25
2023-03-17T04:03:13.247Z,99669.27
2023-03-17T04:08:37.989Z,99670.50
2023-03-17T04:14:02.547Z,99670.04
2023-03-17T04:19:27.890Z,99660.37
2023-03-17T04:24:52.497Z,99654.57
2023-03-17T04:30:17.235Z,99647.77
2023-03-17T04:35:41.814Z,99648.29
2023-03-17T04:41:06.649Z,99652.82
2023-03-17T04:46:31.355Z,99659.69
2023-03-17T04:51:56.125Z,99645.21
2023-03-17T04:57:20.422Z,99646.66
2023-03-17T05:02:45.222Z,99646.08
2023-03-17T05:08:09.191Z,99648.38
2023-03-17T05:13:33.604Z,99636.48
2023-03-17T05:18:58.809Z,99634.11
2023-03-17T05:24:24.174Z,99641.30
2023-03-17T05:29:49.133Z,99647.70
2023-03-17T05:35:13.952Z,99643.02
2023-03-17T05:40:38.465Z,99642.80
2023-03-17T05:46:03.038Z,99635.03
2023-03-17T05:51:28.275Z,99638.63
2023-03-17T05:56:53.665Z,99646.23
2023-03-17T06:02:18.574Z,99649.49
2023-03-17T06:07:52.912Z,99646.92
2023-03-17T06:13:19.463Z,99627.36
2023-03-17T06:19:58.055Z,99617.16
2023-03-17T06:25:23.455Z,99597.47
2023-03-17T06:30:48.143Z,99596.18
2023-03-17T06:36:12.929Z,99603.98
2023-03-17T06:41:36.944Z,99611.39
2023-03-17T06:47:01.149Z,99622.68
2023-03-17T06:52:25.773Z,99617.70
2023-03-17T06:57:51.553Z,99618.71
2023-03-17T07:03:17.259Z,99602.39
2023-03-17T07:08:41.830Z,99597.34
2023-03-17T07:14:06.700Z,99605.71
2023-03-17T07:19:31.609Z,99623.45
2023-03-17T07:24:56.188Z,99621.95
2023-03-17T07:30:21.132Z,99609.00
2023-03-17T07:35:46.158Z,99603.34
2023-03-17T07:41:11.300Z,99606.85
2023-03-17T07:46:35.617Z,99607.62
2023-03-17T07:51:59.824Z,99602.91
2023-03-17T07:57:25.040Z,99608.20
2023-03-17T08:03:06.981Z,99602.05
2023-03-17T08:08:34.413Z,99611.27
2023-03-17T08:13:58.787Z,99609.95
2023-03-17T08:19:24.574Z,99606.37
2023-03-17T08:24:49.228Z,99614.56
2023-03-17T08:30:13.869Z,99619.04
2023-03-17T08:35:42.336Z,99620.88
2023-03-17T08:41:10.071Z,99604.95
2023-03-17T08:46:35.436Z,99579.42
2023-03-17T08:52:00.407Z,99575.47
2023-03-17T08:57:25.089Z,99604.96
2023-03-17T09:02:49.327Z,99604.16
2023-03-17T09:08:13.672Z,99588.78
2023-03-17T09:13:39.606Z,99582.63
2023-03-17T09:19:04.663Z,99574.26
2023-03-17T09:24:29.196Z,99579.70
2023-03-17T09:29:53.111Z,99562.30
2023-03-17T09:35:17.807Z,99556.59
2023-03-17T09:40:49.955Z,99545.16
2023-03-17T09:46:27.314Z,99546.70
2023-03-17T09:51:52.543Z,99555.77
2023-03-17T09:57:32.740Z,99543.00
2023-03-17T10:02:58.375Z,99539.40
2023-03-17T10:08:32.585Z,99526.44
2023-03-17T10:14:52.983Z,99516.55
2023-03-17T10:20:25.936Z,99516.79
2023-03-17T10:25:50.406Z,99496.30
2023-03-17T10:31:29.150Z,99484.09
2023-03-17T10:37:07.019Z,99480.80
2023-03-17T10:42:36.030Z,99466.14
2023-03-17T10:48:04.770Z,99465.52
2023-03-17T10:53:38.855Z,99451.71
2023-03-17T11:05:04.784Z,99434.71
2023-03-17T11:10:30.500Z,99435.73
2023-03-17T11:16:07.793Z,99428.70
2023-03-17T11:21:55.243Z,99420.44
2023-03-17T11:27:36.132Z,99426.99
2023-03-17T11:33:28.384Z,99424.38
2023-03-17T11:39:06.112Z,99419.27
2023-03-17T11:45:06.924Z,99413.06
2023-03-17T11:50:39.656Z,99403.73
2023-03-17T11:56:14.284Z,99401.33
2023-03-17T12:01:51.518Z,99397.85
2023-03-17T12:07:23.830Z,99400.06
2023-03-17T12:12:56.896Z,99394.83
2023-03-17T12:18:33.106Z,99389.54
2023-03-17T12:24:27.224Z,99386.60
2023-03-17T12:30:17.999Z,99381.69
2023-03-17T12:35:43.569Z,99379.11
2023-03-17T12:41:21.231Z,99367.19
2023-03-17T12:47:06.553Z,99361.98
2023-03-17T12:52:37.949Z,99354.38
2023-03-17T12:58:20.454Z,99357.52
2023-03-17T13:04:06.074Z,99350.48
2023-03-17T13:09:43.579Z,99350.92
2023-03-17T13:15:31.168Z,99350.75
2023-03-17T13:21:01.357Z,99340.53
2023-03-17T13:27:04.750Z,99332.98
2023-03-17T13:32:34.050Z,99326.56
2023-03-17T13:38:14.224Z,99316.17
2023-03-17T13:43:45.159Z,99306.14
2023-03-17T13:49:30.276Z,99295.43
2023-03-17T13:55:24.210Z,99303.07
2023-03-17T14:00:56.096Z,99299.76
2023-03-17T14:06:28.381Z,99299.91
2023-03-17T14:11:53.857Z,99303.32
2023-03-17T14:17:30.595Z,99304.45
2023-03-17T14:22:59.361Z,99293.40
2023-03-17T14:28:29.231Z,99286.67
2023-03-17T14:33:57.277Z,99281.59
2023-03-17T14:39:26.643Z,99275.51
2023-03-17T14:45:01.941Z,99277.39
2023-03-17T14:50:31.632Z,99271.52
2023-03-17T14:55:56.867Z,99268.69
2023-03-17T15:01:35.525Z,99268.17
2023-03-17T15:07:03.317Z,99270.25
2023-03-17T15:12:29.380Z,99265.91
2023-03-17T15:17:57.795Z,99261.91
2023-03-17T15:23:41.506Z,99258.64
2023-03-17T15:29:06.238Z,99247.05
2023-03-17T15:34:30.979Z,99237.78
2023-03-17T15:39:56.758Z,99229.67
2023-03-17T15:45:22.724Z,99231.38
2023-03-17T15:50:49.647Z,99230.42
2023-03-17T15:56:20.802Z,99231.36
2023-03-17T16:01:45.670Z,99226.59
2023-03-17T16:07:13.471Z,99222.16
2023-03-17T16:12:37.537Z,99228.63
2023-03-17T16:18:05.001Z,99232.86
2023-03-17T16:23:34.413Z,99233.92
2023-03-17T16:29:00.942Z,99236.19
2023-03-17T16:34:26.217Z,99233.41
2023-03-17T16:39:52.739Z,99226.70
2023-03-17T16:45:22.444Z,99223.05
2023-03-17T16:50:46.608Z,99221.10
2023-03-17T16:56:15.825Z,99216.27
2023-03-17T17:01:41.269Z,99213.77
2023-03-17T17:07:06.108Z,99212.79
2023-03-17T17:12:30.825Z,99212.27
2023-03-17T17:17:58.820Z,99208.42
2023-03-17T17:23:26.692Z,99207.48
2023-03-17T17:28:51.735Z,99208.11
2023-03-17T17:34:16.827Z,99208.37
2023-03-17T17:39:41.089Z,99206.76
2023-03-17T17:45:05.342Z,99198.58
2023-03-17T17:50:30.750Z,99195.27
2023-03-17T17:55:55.938Z,99206.21
2023-03-17T18:01:23.128Z,99206.58
2023-03-17T18:06:48.068Z,99205.41
2023-03-17T18:12:12.209Z,99208.86
2023-03-17T18:17:36.684Z,99206.60
2023-03-17T18:23:01.361Z,99211.23
2023-03-17T18:28:25.487Z,99214.40
2023-03-17T18:33:52.346Z,99214.18
2023-03-17T18:39:17.463Z,99215.73
2023-03-17T18:44:42.052Z,99214.46
2023-03-17T18:50:09.583Z,99209.26
2023-03-17T18:55:33.861Z,99207.59
2023-03-17T19:00:59.960Z,99214.20
2023-03-17T19:06:24.811Z,99212.55
2023-03-17T19:11:49.713Z,99213.04
2023-03-17T19:17:14.117Z,99216.04
2023-03-17T19:22:38.367Z,99209.10
2023-03-17T19:28:03.743Z,99203.21
2023-03-17T19:33:29.196Z,99196.70
2023-03-17T19:38:53.394Z,99198.82
2023-03-17T19:44:18.175Z,99203.05
2023-03-17T19:49:42.568Z,99205.56
2023-03-17T19:55:08.486Z,99209.95
2023-03-17T20:00:34.496Z,99215.30
2023-03-17T20:05:58.589Z,99215.09
2023-03-17T20:11:24.358Z,99210.25
2023-03-17T20:16:50.947Z,99214.24
2023-03-17T20:22:14.966Z,99208.27
2023-03-17T20:27:40.488Z,99200.38
2023-03-17T20:33:07.013Z,99194.96
2023-03-17T20:38:33.591Z,99204.35
2023-03-17T20:43:58.378Z,99208.38
2023-03-17T20:49:23.947Z,99198.77
2023-03-17T20:54:48.852Z,99190.08
2023-03-17T21:00:18.117Z,99186.50
2023-03-17T21:05:42.688Z,99182.21
2023-03-17T21:11:08.431Z,99176.69
2023-03-17T21:16:33.233Z,99180.23
2023-03-17T21:21:58.995Z,99178.15
2023-03-17T21:27:23.390Z,99172.95
2023-03-17T21:32:47.638Z,99167.32
2023-03-17T21:38:12.063Z,99173.91
2023-03-17T21:43:36.197Z,99173.20
2023-03-17T21:49:01.939Z,99174.15
2023-03-17T21:54:27.402Z,99168.67
2023-03-17T21:59:51.320Z,99164.31
2023-03-17T22:05:15.181Z,99165.83
2023-03-17T22:10:40.763Z,99167.57
2023-03-17T22:16:05.357Z,99165.24
2023-03-17T22:21:32.260Z,99169.96
2023-03-17T22:26:56.978Z,99165.11
2023-03-17T22:32:20.981Z,99169.36
2023-03-17T22:37:45.290Z,99168.44
2023-03-17T22:43:09.471Z,99157.74
2023-03-17T22:48:36.178Z,99160.09
2023-03-17T22:54:00.572Z,99162.07
2023-03-17T22:59:25.311Z,99163.67
2023-03-17T23:04:50.410Z,99157.88
2023-03-17T23:10:16.314Z,99158.23
2023-03-17T23:15:40.777Z,99150.11
2023-03-17T23:21:07.074Z,99146.05
2023-03-17T23:26:33.290Z,99140.36
2023-03-17T23:31:58.088Z,99138.70
2023-03-17T23:37:22.564Z,99147.25
2023-03-17T23:42:49.299Z,99152.74
2023-03-17T23:48:13.415Z,99151.86
2023-03-17T23:53:39.807Z,99138.59
2023-03-17T23:59:04.854Z,99146.20
